Aviation Digital Data Service (ADDS)

Output produced by METARs form (1706 UTC 16 June 2019)
found at http://www.aviationweather.gov/metar/data/
 
WBSB 161630Z 18003KT 9999 FEW015 BKN140 27/25 Q1011 RERA NOSIG
TAF WBSB 161100Z 1612/1718 21008KT 9999 SCT014 FEW015CB 
     TEMPO 1612/1616 4000 TSRA 
     BECMG 1703/1705 23012KT FEW016 FEW017CB